sensor_id;sensor_type;location;lat;lon;timestamp;pressure;altitude;pressure_sealevel;temperature;humidity
9257;BME280;4665;51.368;6.782;2022-12-07T00:01:14;101448.44;;;4.14;100.00
9257;BME280;4665;51.368;6.782;2022-12-07T00:03:41;101448.34;;;4.15;100.00
9257;BME280;4665;51.368;6.782;2022-12-07T00:06:08;101440.34;;;4.17;100.00
9257;BME280;4665;51.368;6.782;2022-12-07T00:08:35;101447.41;;;4.16;100.00
9257;BME280;4665;51.368;6.782;2022-12-07T00:11:17;101445.59;;;4.17;100.00
9257;BME280;4665;51.368;6.782;2022-12-07T00:13:43;101442.97;;;4.17;100.00
9257;BME280;4665;51.368;6.782;2022-12-07T00:16:12;101449.97;;;4.18;100.00
9257;BME280;4665;51.368;6.782;2022-12-07T00:18:38;101448.91;;;4.20;100.00
9257;BME280;4665;51.368;6.782;2022-12-07T00:21:08;101452.31;;;4.22;100.00
9257;BME280;4665;51.368;6.782;2022-12-07T00:23:34;101447.03;;;4.22;100.00
9257;BME280;4665;51.368;6.782;2022-12-07T00:26:26;101439.75;;;4.26;100.00
9257;BME280;4665;51.368;6.782;2022-12-07T00:28:54;101439.66;;;4.28;100.00
9257;BME280;4665;51.368;6.782;2022-12-07T00:31:21;101438.81;;;4.27;100.00
9257;BME280;4665;51.368;6.782;2022-12-07T00:33:47;101440.50;;;4.28;100.00
9257;BME280;4665;51.368;6.782;2022-12-07T00:36:16;101433.44;;;4.29;100.00
9257;BME280;4665;51.368;6.782;2022-12-07T00:38:42;101443.06;;;4.30;100.00
9257;BME280;4665;51.368;6.782;2022-12-07T00:41:12;101433.25;;;4.32;100.00
9257;BME280;4665;51.368;6.782;2022-12-07T00:43:39;101430.91;;;4.27;100.00
9257;BME280;4665;51.368;6.782;2022-12-07T00:46:05;101430.63;;;4.32;100.00
9257;BME280;4665;51.368;6.782;2022-12-07T00:48:31;101428.69;;;4.34;100.00
9257;BME280;4665;51.368;6.782;2022-12-07T00:50:57;101429.44;;;4.36;100.00
9257;BME280;4665;51.368;6.782;2022-12-07T00:53:23;101431.03;;;4.38;100.00
9257;BME280;4665;51.368;6.782;2022-12-07T00:55:49;101422.59;;;4.33;100.00
9257;BME280;4665;51.368;6.782;2022-12-07T00:58:15;101426.06;;;4.34;100.00
9257;BME280;4665;51.368;6.782;2022-12-07T01:00:42;101419.84;;;4.35;100.00
9257;BME280;4665;51.368;6.782;2022-12-07T01:03:10;101432.84;;;4.38;100.00
9257;BME280;4665;51.368;6.782;2022-12-07T01:05:36;101424.59;;;4.30;100.00
9257;BME280;4665;51.368;6.782;2022-12-07T01:08:02;101423.41;;;4.34;100.00
9257;BME280;4665;51.368;6.782;2022-12-07T01:10:29;101419.19;;;4.31;100.00
9257;BME280;4665;51.368;6.782;2022-12-07T01:12:56;101419.31;;;4.30;100.00
9257;BME280;4665;51.368;6.782;2022-12-07T01:15:22;101420.25;;;4.29;100.00
9257;BME280;4665;51.368;6.782;2022-12-07T01:17:47;101412.53;;;4.26;100.00
9257;BME280;4665;51.368;6.782;2022-12-07T01:20:13;101416.00;;;4.26;100.00
9257;BME280;4665;51.368;6.782;2022-12-07T01:22:42;101409.06;;;4.25;100.00
9257;BME280;4665;51.368;6.782;2022-12-07T01:25:10;101414.88;;;4.30;100.00
9257;BME280;4665;51.368;6.782;2022-12-07T01:27:36;101412.44;;;4.27;100.00
9257;BME280;4665;51.368;6.782;2022-12-07T01:30:03;101408.19;;;4.25;100.00
9257;BME280;4665;51.368;6.782;2022-12-07T01:32:29;101409.91;;;4.26;100.00
9257;BME280;4665;51.368;6.782;2022-12-07T01:34:55;101413.28;;;4.28;100.00
9257;BME280;4665;51.368;6.782;2022-12-07T01:37:21;101413.47;;;4.25;100.00
9257;BME280;4665;51.368;6.782;2022-12-07T01:39:51;101417.72;;;4.27;100.00
9257;BME280;4665;51.368;6.782;2022-12-07T01:42:17;101429.19;;;4.26;100.00
9257;BME280;4665;51.368;6.782;2022-12-07T01:47:56;101429.28;;;4.25;100.00
9257;BME280;4665;51.368;6.782;2022-12-07T01:50:25;101418.75;;;4.25;100.00
9257;BME280;4665;51.368;6.782;2022-12-07T01:52:53;101420.44;;;4.26;100.00
9257;BME280;4665;51.368;6.782;2022-12-07T01:55:21;101419.91;;;4.20;100.00
9257;BME280;4665;51.368;6.782;2022-12-07T01:57:49;101414.50;;;4.22;100.00
9257;BME280;4665;51.368;6.782;2022-12-07T02:00:16;101418.94;;;4.21;100.00
9257;BME280;4665;51.368;6.782;2022-12-07T02:02:57;101408.69;;;4.17;100.00
9257;BME280;4665;51.368;6.782;2022-12-07T02:05:25;101402.66;;;4.15;100.00
9257;BME280;4665;51.368;6.782;2022-12-07T02:07:54;101403.50;;;4.15;100.00
9257;BME280;4665;51.368;6.782;2022-12-07T02:10:23;101395.78;;;4.12;100.00
9257;BME280;4665;51.368;6.782;2022-12-07T02:12:54;101397.69;;;4.10;100.00
9257;BME280;4665;51.368;6.782;2022-12-07T02:15:21;101397.13;;;4.05;100.00
9257;BME280;4665;51.368;6.782;2022-12-07T02:18:23;101398.84;;;4.06;100.00
9257;BME280;4665;51.368;6.782;2022-12-07T02:29:16;101411.28;;;4.04;100.00
9257;BME280;4665;51.368;6.782;2022-12-07T02:31:46;101409.22;;;3.95;100.00
9257;BME280;4665;51.368;6.782;2022-12-07T02:34:49;101413.72;;;3.93;100.00
9257;BME280;4665;51.368;6.782;2022-12-07T02:40:13;101424.28;;;3.93;100.00
9257;BME280;4665;51.368;6.782;2022-12-07T02:42:46;101418.25;;;3.91;100.00
9257;BME280;4665;51.368;6.782;2022-12-07T02:45:17;101417.13;;;3.95;100.00
9257;BME280;4665;51.368;6.782;2022-12-07T02:47:48;101404.31;;;3.89;100.00
9257;BME280;4665;51.368;6.782;2022-12-07T02:50:19;101406.09;;;3.88;100.00
9257;BME280;4665;51.368;6.782;2022-12-07T02:52:45;101409.38;;;3.92;100.00
9257;BME280;4665;51.368;6.782;2022-12-07T02:55:11;101407.91;;;3.88;100.00
9257;BME280;4665;51.368;6.782;2022-12-07T02:57:49;101410.63;;;3.86;100.00
9257;BME280;4665;51.368;6.782;2022-12-07T03:00:20;101411.66;;;3.84;100.00
9257;BME280;4665;51.368;6.782;2022-12-07T03:03:01;101418.16;;;3.92;100.00
9257;BME280;4665;51.368;6.782;2022-12-07T03:11:10;101415.63;;;3.76;100.00
9257;BME280;4665;51.368;6.782;2022-12-07T03:13:55;101410.53;;;3.73;100.00
9257;BME280;4665;51.368;6.782;2022-12-07T03:16:45;101416.00;;;3.70;100.00
9257;BME280;4665;51.368;6.782;2022-12-07T03:19:17;101418.84;;;3.67;100.00
9257;BME280;4665;51.368;6.782;2022-12-07T03:22:08;101413.72;;;3.64;100.00
9257;BME280;4665;51.368;6.782;2022-12-07T03:24:52;101405.94;;;3.63;100.00
9257;BME280;4665;51.368;6.782;2022-12-07T03:27:32;101406.97;;;3.60;100.00
9257;BME280;4665;51.368;6.782;2022-12-07T03:30:06;101404.44;;;3.58;100.00
9257;BME280;4665;51.368;6.782;2022-12-07T03:32:43;101406.59;;;3.52;100.00
9257;BME280;4665;51.368;6.782;2022-12-07T03:35:19;101400.19;;;3.56;100.00
9257;BME280;4665;51.368;6.782;2022-12-07T03:40:24;101408.38;;;3.51;100.00
9257;BME280;4665;51.368;6.782;2022-12-07T03:42:51;101408.56;;;3.48;100.00
9257;BME280;4665;51.368;6.782;2022-12-07T03:45:18;101411.28;;;3.47;100.00
9257;BME280;4665;51.368;6.782;2022-12-07T03:48:02;101406.31;;;3.42;100.00
9257;BME280;4665;51.368;6.782;2022-12-07T03:53:26;101419.94;;;3.49;100.00
9257;BME280;4665;51.368;6.782;2022-12-07T03:55:56;101398.75;;;3.50;100.00
9257;BME280;4665;51.368;6.782;2022-12-07T03:58:23;101406.94;;;3.46;100.00
9257;BME280;4665;51.368;6.782;2022-12-07T04:00:50;101407.06;;;3.44;100.00
9257;BME280;4665;51.368;6.782;2022-12-07T04:03:16;101406.66;;;3.36;100.00
9257;BME280;4665;51.368;6.782;2022-12-07T04:05:42;101406.78;;;3.34;100.00
9257;BME280;4665;51.368;6.782;2022-12-07T04:08:08;101410.16;;;3.36;100.00
9257;BME280;4665;51.368;6.782;2022-12-07T04:10:33;101404.22;;;3.33;100.00
9257;BME280;4665;51.368;6.782;2022-12-07T04:12:59;101403.94;;;3.37;100.00
9257;BME280;4665;51.368;6.782;2022-12-07T04:15:24;101409.97;;;3.40;100.00
9257;BME280;4665;51.368;6.782;2022-12-07T04:17:50;101409.78;;;3.43;100.00
9257;BME280;4665;51.368;6.782;2022-12-07T04:20:16;101406.59;;;3.37;100.00
9257;BME280;4665;51.368;6.782;2022-12-07T04:22:41;101403.75;;;3.41;100.00
9257;BME280;4665;51.368;6.782;2022-12-07T04:25:07;101400.94;;;3.44;100.00
9257;BME280;4665;51.368;6.782;2022-12-07T04:27:32;101392.28;;;3.42;100.00
9257;BME280;4665;51.368;6.782;2022-12-07T04:29:58;101398.75;;;3.36;100.00
9257;BME280;4665;51.368;6.782;2022-12-07T04:32:24;101390.69;;;3.39;100.00
9257;BME280;4665;51.368;6.782;2022-12-07T04:34:49;101388.34;;;3.34;100.00
9257;BME280;4665;51.368;6.782;2022-12-07T04:37:15;101389.25;;;3.33;100.00
9257;BME280;4665;51.368;6.782;2022-12-07T04:39:40;101387.59;;;3.32;100.00
9257;BME280;4665;51.368;6.782;2022-12-07T04:42:06;101396.88;;;3.38;100.00
9257;BME280;4665;51.368;6.782;2022-12-07T04:44:31;101384.84;;;3.34;100.00
9257;BME280;4665;51.368;6.782;2022-12-07T04:46:57;101390.03;;;3.35;100.00
9257;BME280;4665;51.368;6.782;2022-12-07T04:49:23;101385.72;;;3.34;100.00
9257;BME280;4665;51.368;6.782;2022-12-07T04:51:49;101398.97;;;3.33;100.00
9257;BME280;4665;51.368;6.782;2022-12-07T04:54:15;101401.50;;;3.34;100.00
9257;BME280;4665;51.368;6.782;2022-12-07T04:56:41;101391.13;;;3.31;100.00
9257;BME280;4665;51.368;6.782;2022-12-07T04:59:07;101402.34;;;3.35;100.00
9257;BME280;4665;51.368;6.782;2022-12-07T05:01:33;101398.47;;;3.26;100.00
9257;BME280;4665;51.368;6.782;2022-12-07T05:03:59;101384.47;;;3.26;100.00
9257;BME280;4665;51.368;6.782;2022-12-07T05:06:25;101393.22;;;3.26;100.00
9257;BME280;4665;51.368;6.782;2022-12-07T05:08:51;101395.94;;;3.25;100.00
9257;BME280;4665;51.368;6.782;2022-12-07T05:11:16;101392.84;;;3.18;100.00
9257;BME280;4665;51.368;6.782;2022-12-07T05:14:02;101400.91;;;3.15;100.00
9257;BME280;4665;51.368;6.782;2022-12-07T05:16:28;101396.94;;;3.08;100.00
9257;BME280;4665;51.368;6.782;2022-12-07T05:18:54;101397.69;;;3.10;100.00
9257;BME280;4665;51.368;6.782;2022-12-07T05:21:20;101396.03;;;3.09;100.00
9257;BME280;4665;51.368;6.782;2022-12-07T05:23:45;101397.91;;;3.07;100.00
9257;BME280;4665;51.368;6.782;2022-12-07T05:26:10;101402.88;;;3.11;100.00
9257;BME280;4665;51.368;6.782;2022-12-07T05:28:36;101398.53;;;3.10;100.00
9257;BME280;4665;51.368;6.782;2022-12-07T05:31:01;101400.41;;;3.08;100.00
9257;BME280;4665;51.368;6.782;2022-12-07T05:33:27;101396.19;;;3.06;100.00
9257;BME280;4665;51.368;6.782;2022-12-07T05:35:52;101390.06;;;3.05;100.00
9257;BME280;4665;51.368;6.782;2022-12-07T05:38:18;101392.78;;;3.04;100.00
9257;BME280;4665;51.368;6.782;2022-12-07T05:40:43;101397.91;;;3.07;100.00
9257;BME280;4665;51.368;6.782;2022-12-07T05:43:10;101396.19;;;3.06;100.00
9257;BME280;4665;51.368;6.782;2022-12-07T05:45:35;101388.75;;;2.98;100.00
9257;BME280;4665;51.368;6.782;2022-12-07T05:48:01;101380.16;;;2.94;100.00
9257;BME280;4665;51.368;6.782;2022-12-07T05:50:26;101382.44;;;3.01;100.00
9257;BME280;4665;51.368;6.782;2022-12-07T05:52:53;101382.38;;;3.02;100.00
9257;BME280;4665;51.368;6.782;2022-12-07T05:55:18;101371.91;;;3.01;100.00
9257;BME280;4665;51.368;6.782;2022-12-07T05:57:43;101388.47;;;3.03;100.00
9257;BME280;4665;51.368;6.782;2022-12-07T06:00:29;101386.03;;;3.00;100.00
9257;BME280;4665;51.368;6.782;2022-12-07T06:02:54;101379.47;;;3.07;100.00
9257;BME280;4665;51.368;6.782;2022-12-07T06:05:20;101383.13;;;3.04;100.00
9257;BME280;4665;51.368;6.782;2022-12-07T06:07:45;101379.47;;;3.07;100.00
9257;BME280;4665;51.368;6.782;2022-12-07T06:10:10;101386.69;;;3.17;100.00
9257;BME280;4665;51.368;6.782;2022-12-07T06:12:36;101389.13;;;3.06;100.00
9257;BME280;4665;51.368;6.782;2022-12-07T06:15:05;101387.16;;;3.10;100.00
9257;BME280;4665;51.368;6.782;2022-12-07T06:17:30;101387.38;;;3.07;100.00
9257;BME280;4665;51.368;6.782;2022-12-07T06:19:56;101391.75;;;3.06;100.00
9257;BME280;4665;51.368;6.782;2022-12-07T06:22:21;101400.41;;;3.08;100.00
9257;BME280;4665;51.368;6.782;2022-12-07T06:24:47;101390.75;;;3.09;100.00
9257;BME280;4665;51.368;6.782;2022-12-07T06:27:13;101386.22;;;3.11;100.00
9257;BME280;4665;51.368;6.782;2022-12-07T06:29:38;101399.38;;;3.11;100.00
9257;BME280;4665;51.368;6.782;2022-12-07T06:32:04;101393.13;;;3.13;100.00
9257;BME280;4665;51.368;6.782;2022-12-07T06:34:30;101390.63;;;3.10;100.00
9257;BME280;4665;51.368;6.782;2022-12-07T06:36:55;101383.78;;;3.08;100.00
9257;BME280;4665;51.368;6.782;2022-12-07T06:39:23;101385.38;;;3.10;100.00
9257;BME280;4665;51.368;6.782;2022-12-07T06:41:50;101389.72;;;3.11;100.00
9257;BME280;4665;51.368;6.782;2022-12-07T06:44:17;101386.22;;;3.11;100.00
9257;BME280;4665;51.368;6.782;2022-12-07T06:46:43;101387.72;;;3.15;100.00
9257;BME280;4665;51.368;6.782;2022-12-07T06:49:08;101395.47;;;3.18;100.00
9257;BME280;4665;51.368;6.782;2022-12-07T06:51:34;101384.94;;;3.18;100.00
9257;BME280;4665;51.368;6.782;2022-12-07T06:54:03;101398.00;;;3.20;100.00
9257;BME280;4665;51.368;6.782;2022-12-07T06:56:28;101398.19;;;3.16;100.00
9257;BME280;4665;51.368;6.782;2022-12-07T06:58:54;101396.41;;;3.17;100.00
9257;BME280;4665;51.368;6.782;2022-12-07T07:01:19;101400.75;;;3.18;100.00
9257;BME280;4665;51.368;6.782;2022-12-07T07:03:45;101404.38;;;3.15;100.00
9257;BME280;4665;51.368;6.782;2022-12-07T07:06:11;101402.63;;;3.16;100.00
9257;BME280;4665;51.368;6.782;2022-12-07T07:08:38;101401.75;;;3.15;100.00
9257;BME280;4665;51.368;6.782;2022-12-07T07:11:04;101400.91;;;3.15;100.00
9257;BME280;4665;51.368;6.782;2022-12-07T07:13:30;101395.75;;;3.13;100.00
9257;BME280;4665;51.368;6.782;2022-12-07T07:15:56;101395.06;;;3.10;100.00
9257;BME280;4665;51.368;6.782;2022-12-07T07:18:21;101407.19;;;3.12;100.00
9257;BME280;4665;51.368;6.782;2022-12-07T07:20:47;101411.63;;;3.12;100.00
9257;BME280;4665;51.368;6.782;2022-12-07T07:23:12;101409.91;;;3.11;100.00
9257;BME280;4665;51.368;6.782;2022-12-07T07:25:38;101407.47;;;3.08;100.00
9257;BME280;4665;51.368;6.782;2022-12-07T07:28:04;101409.13;;;2.94;100.00
9257;BME280;4665;51.368;6.782;2022-12-07T07:30:30;101411.69;;;2.96;100.00
9257;BME280;4665;51.368;6.782;2022-12-07T07:33:00;101406.19;;;2.85;100.00
9257;BME280;4665;51.368;6.782;2022-12-07T07:35:28;101407.16;;;2.84;100.00
9257;BME280;4665;51.368;6.782;2022-12-07T07:37:55;101408.06;;;2.83;100.00
9257;BME280;4665;51.368;6.782;2022-12-07T07:40:20;101412.56;;;2.81;100.00
9257;BME280;4665;51.368;6.782;2022-12-07T07:42:53;101412.66;;;2.79;100.00
9257;BME280;4665;51.368;6.782;2022-12-07T07:45:19;101404.94;;;2.76;100.00
9257;BME280;4665;51.368;6.782;2022-12-07T07:47:45;101415.31;;;2.79;100.00
9257;BME280;4665;51.368;6.782;2022-12-07T07:50:11;101416.16;;;2.80;100.00
9257;BME280;4665;51.368;6.782;2022-12-07T07:52:36;101411.06;;;2.77;100.00
9257;BME280;4665;51.368;6.782;2022-12-07T07:55:02;101408.44;;;2.77;100.00
9257;BME280;4665;51.368;6.782;2022-12-07T07:57:29;101412.66;;;2.79;100.00
9257;BME280;4665;51.368;6.782;2022-12-07T07:59:54;101412.66;;;2.79;100.00
9257;BME280;4665;51.368;6.782;2022-12-07T08:02:40;101416.97;;;2.80;100.00
9257;BME280;4665;51.368;6.782;2022-12-07T08:05:08;101410.88;;;2.80;100.00
9257;BME280;4665;51.368;6.782;2022-12-07T08:07:33;101409.34;;;2.76;100.00
9257;BME280;4665;51.368;6.782;2022-12-07T08:10:07;101415.31;;;2.79;100.00
9257;BME280;4665;51.368;6.782;2022-12-07T08:12:36;101410.19;;;2.76;100.00
9257;BME280;4665;51.368;6.782;2022-12-07T08:15:02;101419.03;;;2.75;100.00
9257;BME280;4665;51.368;6.782;2022-12-07T08:17:28;101416.34;;;2.77;100.00
9257;BME280;4665;51.368;6.782;2022-12-07T08:19:53;101416.97;;;2.80;100.00
9257;BME280;4665;51.368;6.782;2022-12-07T08:22:19;101419.53;;;2.82;100.00
9257;BME280;4665;51.368;6.782;2022-12-07T08:24:44;101416.81;;;2.83;100.00
9257;BME280;4665;51.368;6.782;2022-12-07T08:27:10;101425.66;;;2.82;100.00
9257;BME280;4665;51.368;6.782;2022-12-07T08:29:35;101431.47;;;2.87;100.00
9257;BME280;4665;51.368;6.782;2022-12-07T08:32:01;101427.81;;;2.90;100.00
9257;BME280;4665;51.368;6.782;2022-12-07T08:34:26;101431.13;;;2.93;100.00
9257;BME280;4665;51.368;6.782;2022-12-07T08:36:52;101433.97;;;2.90;100.00
9257;BME280;4665;51.368;6.782;2022-12-07T08:39:17;101428.84;;;2.87;100.00
9257;BME280;4665;51.368;6.782;2022-12-07T08:41:43;101430.44;;;2.90;100.00
9257;BME280;4665;51.368;6.782;2022-12-07T08:44:08;101422.56;;;2.90;100.00
9257;BME280;4665;51.368;6.782;2022-12-07T08:46:37;101422.66;;;2.88;100.00
9257;BME280;4665;51.368;6.782;2022-12-07T08:49:12;101414.66;;;2.90;100.00
9257;BME280;4665;51.368;6.782;2022-12-07T08:51:38;101419.84;;;2.91;100.00
9257;BME280;4665;51.368;6.782;2022-12-07T08:54:08;101429.34;;;2.94;100.00
9257;BME280;4665;51.368;6.782;2022-12-07T08:56:34;101413.53;;;2.94;100.00
9257;BME280;4665;51.368;6.782;2022-12-07T08:59:00;101422.88;;;3.00;100.00
9257;BME280;4665;51.368;6.782;2022-12-07T09:01:25;101423.47;;;3.05;100.00
9257;BME280;4665;51.368;6.782;2022-12-07T09:03:52;101422.16;;;3.12;100.00
9257;BME280;4665;51.368;6.782;2022-12-07T09:08:56;101425.94;;;3.22;100.00
9257;BME280;4665;51.368;6.782;2022-12-07T09:11:23;101417.75;;;3.27;100.00
9257;BME280;4665;51.368;6.782;2022-12-07T09:13:48;101417.59;;;3.30;100.00
9257;BME280;4665;51.368;6.782;2022-12-07T09:16:14;101420.22;;;3.30;100.00
9257;BME280;4665;51.368;6.782;2022-12-07T09:18:39;101424.63;;;3.29;100.00
9257;BME280;4665;51.368;6.782;2022-12-07T09:21:05;101428.78;;;3.33;100.00
9257;BME280;4665;51.368;6.782;2022-12-07T09:23:30;101430.28;;;3.37;100.00
9257;BME280;4665;51.368;6.782;2022-12-07T09:26:01;101425.22;;;3.49;100.00
9257;BME280;4665;51.368;6.782;2022-12-07T09:28:26;101429.47;;;3.51;100.00
9257;BME280;4665;51.368;6.782;2022-12-07T09:30:52;101425.44;;;3.60;100.00
9257;BME280;4665;51.368;6.782;2022-12-07T09:33:17;101436.31;;;3.68;100.00
9257;BME280;4665;51.368;6.782;2022-12-07T09:35:50;101424.75;;;3.71;100.00
9257;BME280;4665;51.368;6.782;2022-12-07T09:38:17;101428.34;;;3.70;100.00
9257;BME280;4665;51.368;6.782;2022-12-07T09:40:43;101428.81;;;3.76;100.00
9257;BME280;4665;51.368;6.782;2022-12-07T09:43:19;101429.00;;;3.88;100.00
9257;BME280;4665;51.368;6.782;2022-12-07T09:45:47;101436.22;;;3.84;100.00
9257;BME280;4665;51.368;6.782;2022-12-07T09:48:18;101424.94;;;3.82;100.00
9257;BME280;4665;51.368;6.782;2022-12-07T09:50:46;101429.66;;;3.77;100.00
9257;BME280;4665;51.368;6.782;2022-12-07T09:53:23;101424.72;;;3.85;100.00
9257;BME280;4665;51.368;6.782;2022-12-07T09:55:49;101418.16;;;3.78;100.00
9257;BME280;4665;51.368;6.782;2022-12-07T09:58:26;101413.47;;;3.83;100.00
9257;BME280;4665;51.368;6.782;2022-12-07T10:01:14;101409.97;;;3.83;100.00
9257;BME280;4665;51.368;6.782;2022-12-07T10:03:51;101408.00;;;3.86;100.00
9257;BME280;4665;51.368;6.782;2022-12-07T10:06:17;101401.50;;;3.77;100.00
9257;BME280;4665;51.368;6.782;2022-12-07T10:08:43;101406.69;;;3.79;100.00
9257;BME280;4665;51.368;6.782;2022-12-07T10:11:10;101404.03;;;3.79;100.00
9257;BME280;4665;51.368;6.782;2022-12-07T10:16:04;101407.59;;;3.78;100.00
9257;BME280;4665;51.368;6.782;2022-12-07T10:18:36;101398.78;;;3.79;100.00
9257;BME280;4665;51.368;6.782;2022-12-07T10:23:37;101403.66;;;3.85;100.00
9257;BME280;4665;51.368;6.782;2022-12-07T10:28:54;101397.66;;;3.83;100.00
9257;BME280;4665;51.368;6.782;2022-12-07T10:31:22;101398.38;;;3.85;100.00
9257;BME280;4665;51.368;6.782;2022-12-07T10:33:58;101395.44;;;3.90;100.00
9257;BME280;4665;51.368;6.782;2022-12-07T10:36:35;101390.75;;;3.95;100.00
9257;BME280;4665;51.368;6.782;2022-12-07T10:39:12;101383.09;;;4.05;100.00
9257;BME280;4665;51.368;6.782;2022-12-07T10:41:57;101374.69;;;4.12;100.00
9257;BME280;4665;51.368;6.782;2022-12-07T10:44:31;101382.38;;;4.30;100.00
9257;BME280;4665;51.368;6.782;2022-12-07T10:47:12;101363.72;;;4.33;100.00
9257;BME280;4665;51.368;6.782;2022-12-07T10:50:28;101370.06;;;4.43;100.00
9257;BME280;4665;51.368;6.782;2022-12-07T10:52:42;101367.25;;;4.46;100.00
9257;BME280;4665;51.368;6.782;2022-12-07T10:55:27;101371.16;;;4.53;100.00
9257;BME280;4665;51.368;6.782;2022-12-07T11:09:04;101356.88;;;4.83;100.00
9257;BME280;4665;51.368;6.782;2022-12-07T11:11:51;101357.94;;;4.93;100.00
9257;BME280;4665;51.368;6.782;2022-12-07T11:14:28;101356.88;;;4.96;100.00
9257;BME280;4665;51.368;6.782;2022-12-07T11:17:01;101342.50;;;4.87;100.00
9257;BME280;4665;51.368;6.782;2022-12-07T11:22:31;101338.09;;;4.88;100.00
9257;BME280;4665;51.368;6.782;2022-12-07T11:27:47;101329.31;;;4.87;100.00
9257;BME280;4665;51.368;6.782;2022-12-07T11:30:20;101319.91;;;4.83;100.00
9257;BME280;4665;51.368;6.782;2022-12-07T11:33:24;101329.13;;;4.90;100.00
9257;BME280;4665;51.368;6.782;2022-12-07T11:38:50;101321.72;;;4.95;100.00
9257;BME280;4665;51.368;6.782;2022-12-07T11:41:22;101309.44;;;4.94;100.00
9257;BME280;4665;51.368;6.782;2022-12-07T11:44:01;101306.09;;;4.92;100.00
9257;BME280;4665;51.368;6.782;2022-12-07T11:49:39;101298.69;;;4.97;100.00
9257;BME280;4665;51.368;6.782;2022-12-07T11:52:13;101310.00;;;4.99;100.00
9257;BME280;4665;51.368;6.782;2022-12-07T11:54:43;101303.66;;;5.02;100.00
9257;BME280;4665;51.368;6.782;2022-12-07T11:57:20;101311.34;;;5.05;100.00
9257;BME280;4665;51.368;6.782;2022-12-07T11:59:52;101304.09;;;5.09;100.00
9257;BME280;4665;51.368;6.782;2022-12-07T12:02:39;101312.19;;;5.05;100.00
9257;BME280;4665;51.368;6.782;2022-12-07T12:05:21;101304.28;;;5.05;100.00
9257;BME280;4665;51.368;6.782;2022-12-07T12:08:01;101304.09;;;5.09;100.00
9257;BME280;4665;51.368;6.782;2022-12-07T12:10:55;101302.06;;;5.12;100.00
9257;BME280;4665;51.368;6.782;2022-12-07T12:21:29;101293.28;;;5.12;100.00
9257;BME280;4665;51.368;6.782;2022-12-07T12:24:37;101291.50;;;5.12;100.00
9257;BME280;4665;51.368;6.782;2022-12-07T12:27:06;101287.78;;;5.15;100.00
9257;BME280;4665;51.368;6.782;2022-12-07T12:29:37;101273.31;;;5.07;100.00
9257;BME280;4665;51.368;6.782;2022-12-07T12:34:42;101280.41;;;5.20;100.00
9257;BME280;4665;51.368;6.782;2022-12-07T12:42:51;101281.91;;;5.11;100.00
9257;BME280;4665;51.368;6.782;2022-12-07T12:48:01;101279.13;;;4.87;100.00
9257;BME280;4665;51.368;6.782;2022-12-07T12:50:37;101275.22;;;4.80;100.00
9257;BME280;4665;51.368;6.782;2022-12-07T13:00:46;101264.34;;;4.46;100.00
9257;BME280;4665;51.368;6.782;2022-12-07T13:03:51;101249.97;;;4.37;100.00
9257;BME280;4665;51.368;6.782;2022-12-07T13:08:44;101258.63;;;4.39;100.00
9257;BME280;4665;51.368;6.782;2022-12-07T13:11:19;101267.06;;;4.45;100.00
9257;BME280;4665;51.368;6.782;2022-12-07T13:13:45;101248.69;;;4.43;100.00
9257;BME280;4665;51.368;6.782;2022-12-07T13:18:37;101264.88;;;4.51;100.00
9257;BME280;4665;51.368;6.782;2022-12-07T13:26:35;101246.53;;;4.62;100.00
9257;BME280;4665;51.368;6.782;2022-12-07T13:29:09;101251.66;;;4.64;100.00
9257;BME280;4665;51.368;6.782;2022-12-07T13:31:37;101238.59;;;4.62;100.00
9257;BME280;4665;51.368;6.782;2022-12-07T13:34:26;101248.63;;;4.70;100.00
9257;BME280;4665;51.368;6.782;2022-12-07T13:36:50;101231.84;;;4.71;100.00
9257;BME280;4665;51.368;6.782;2022-12-07T13:39:18;101236.06;;;4.74;100.00
9257;BME280;4665;51.368;6.782;2022-12-07T13:41:50;101240.16;;;4.78;100.00
9257;BME280;4665;51.368;6.782;2022-12-07T13:44:17;101228.69;;;4.79;100.00
9257;BME280;4665;51.368;6.782;2022-12-07T13:49:36;101220.75;;;4.79;100.00
9257;BME280;4665;51.368;6.782;2022-12-07T13:52:25;101221.50;;;4.81;100.00
9257;BME280;4665;51.368;6.782;2022-12-07T13:57:30;101204.69;;;4.82;100.00
9257;BME280;4665;51.368;6.782;2022-12-07T13:59:57;101199.41;;;4.82;100.00
9257;BME280;4665;51.368;6.782;2022-12-07T14:02:29;101205.34;;;4.85;100.00
9257;BME280;4665;51.368;6.782;2022-12-07T14:07:34;101203.53;;;4.86;100.00
9257;BME280;4665;51.368;6.782;2022-12-07T14:10:04;101193.50;;;4.91;100.00
9257;BME280;4665;51.368;6.782;2022-12-07T14:12:44;101191.31;;;4.85;100.00
9257;BME280;4665;51.368;6.782;2022-12-07T14:15:22;101191.41;;;4.83;100.00
9257;BME280;4665;51.368;6.782;2022-12-07T14:17:53;101194.88;;;4.84;100.00
9257;BME280;4665;51.368;6.782;2022-12-07T14:20:36;101183.72;;;4.80;100.00
9257;BME280;4665;51.368;6.782;2022-12-07T14:23:03;101185.59;;;4.78;100.00
9257;BME280;4665;51.368;6.782;2022-12-07T14:26:03;101182.31;;;4.75;100.00
9257;BME280;4665;51.368;6.782;2022-12-07T14:28:32;101178.09;;;4.72;100.00
9257;BME280;4665;51.368;6.782;2022-12-07T14:30:59;101172.00;;;4.72;100.00
9257;BME280;4665;51.368;6.782;2022-12-07T14:33:25;101173.66;;;4.73;100.00
9257;BME280;4665;51.368;6.782;2022-12-07T14:35:51;101170.19;;;4.72;100.00
9257;BME280;4665;51.368;6.782;2022-12-07T14:38:21;101158.97;;;4.69;100.00
9257;BME280;4665;51.368;6.782;2022-12-07T14:40:47;101156.66;;;4.64;100.00
9257;BME280;4665;51.368;6.782;2022-12-07T14:43:16;101162.81;;;4.64;100.00
9257;BME280;4665;51.368;6.782;2022-12-07T14:45:42;101161.31;;;4.60;100.00
9257;BME280;4665;51.368;6.782;2022-12-07T14:48:11;101158.03;;;4.57;100.00
9257;BME280;4665;51.368;6.782;2022-12-07T14:50:39;101157.94;;;4.58;100.00
9257;BME280;4665;51.368;6.782;2022-12-07T14:53:17;101165.13;;;4.56;100.00
9257;BME280;4665;51.368;6.782;2022-12-07T14:55:44;101152.03;;;4.55;100.00
9257;BME280;4665;51.368;6.782;2022-12-07T14:58:17;101152.03;;;4.55;100.00
9257;BME280;4665;51.368;6.782;2022-12-07T15:00:43;101148.53;;;4.54;100.00
9257;BME280;4665;51.368;6.782;2022-12-07T15:03:09;101155.63;;;4.54;100.00
9257;BME280;4665;51.368;6.782;2022-12-07T15:05:35;101149.72;;;4.50;100.00
9257;BME280;4665;51.368;6.782;2022-12-07T15:08:01;101153.41;;;4.48;100.00